Time;durP1;ratioP1;P1;durP2;ratioP2;P2;SDS_P1;SDS_P2;PMS_P1;PMS_P2;Temp;Humidity;BMP_temperature;BMP_pressure;BME280_temperature;BME280_humidity;BME280_pressure;Samples;Min_cycle;Max_cycle;Signal;HPM_P1;HPM_P2
2022/09/15 00:01:25;;;;;;;14.05;3.30;;;17.20;99.90;;;;;;5028034;28;20124;-63
2022/09/15 00:03:51;;;;;;;8.48;2.63;;;17.30;99.90;;;;;;5024216;28;20038;-62
2022/09/15 00:06:18;;;;;;;5.25;2.55;;;17.30;99.90;;;;;;5027413;28;20040;-62
2022/09/15 00:08:43;;;;;;;5.45;2.33;;;17.20;99.90;;;;;;5027108;28;20053;-67
2022/09/15 00:11:11;;;;;;;6.78;2.70;;;17.10;99.90;;;;;;5026885;28;20049;-64
2022/09/15 00:13:38;;;;;;;8.98;2.83;;;16.90;99.90;;;;;;5030207;28;20036;-64
2022/09/15 00:16:04;;;;;;;4.05;2.38;;;16.90;99.90;;;;;;5030315;28;20052;-63
2022/09/15 00:18:30;;;;;;;6.80;2.30;;;16.90;99.90;;;;;;5032162;28;20037;-67
2022/09/15 00:20:56;;;;;;;5.13;2.63;;;16.90;99.90;;;;;;5030477;28;20039;-64
2022/09/15 00:23:22;;;;;;;6.18;2.60;;;16.90;99.90;;;;;;5031293;28;20038;-63
2022/09/15 00:25:50;;;;;;;8.35;2.75;;;16.90;99.90;;;;;;5030222;28;20109;-63
2022/09/15 00:28:18;;;;;;;6.93;2.75;;;16.90;99.90;;;;;;5031199;28;20045;-65
2022/09/15 00:30:46;;;;;;;10.13;3.20;;;16.90;99.90;;;;;;5029190;28;20029;-67
2022/09/15 00:33:13;;;;;;;9.90;3.40;;;16.90;99.90;;;;;;5028925;28;20128;-64
2022/09/15 00:35:40;;;;;;;8.85;2.78;;;16.90;99.90;;;;;;5030439;28;20493;-65
2022/09/15 00:38:07;;;;;;;9.40;2.75;;;16.90;99.90;;;;;;5030855;28;20490;-65
2022/09/15 00:40:41;;;;;;;4.50;2.40;;;16.80;99.90;;;;;;5031464;28;20026;-66
2022/09/15 00:43:09;;;;;;;7.00;3.22;;;16.80;99.90;;;;;;5030043;28;20628;-63
2022/09/15 00:45:35;;;;;;;10.10;3.00;;;16.80;99.90;;;;;;5030961;28;20033;-62
2022/09/15 00:48:01;;;;;;;6.80;3.00;;;16.80;99.90;;;;;;5029833;28;20072;-64
2022/09/15 00:50:27;;;;;;;7.93;3.30;;;16.80;99.90;;;;;;5031318;28;20026;-64
2022/09/15 00:52:58;;;;;;;9.07;3.50;;;16.80;99.90;;;;;;5029187;28;20048;-63
2022/09/15 00:55:30;;;;;;;8.07;3.67;;;16.80;99.90;;;;;;5032387;28;20037;-65
2022/09/15 00:58:05;;;;;;;10.05;3.58;;;16.80;99.90;;;;;;5030618;28;20041;-63
2022/09/15 01:00:32;;;;;;;9.32;3.20;;;16.80;99.90;;;;;;5029455;28;20128;-65
2022/09/15 01:02:58;;;;;;;9.48;3.47;;;16.80;99.90;;;;;;5030116;28;20128;-63
2022/09/15 01:05:35;;;;;;;7.25;3.28;;;16.80;99.90;;;;;;5031334;28;20039;-62
2022/09/15 01:08:11;;;;;;;7.40;3.83;;;16.80;99.90;;;;;;5028705;28;20160;-64
2022/09/15 01:10:39;;;;;;;8.38;3.47;;;16.80;99.90;;;;;;5031116;28;20400;-64
2022/09/15 01:13:07;;;;;;;8.43;3.78;;;16.80;99.90;;;;;;5030383;28;20060;-62
2022/09/15 01:15:53;;;;;;;7.28;3.33;;;16.80;99.90;;;;;;5028963;28;20526;-64
2022/09/15 01:18:33;;;;;;;8.07;4.00;;;16.80;99.90;;;;;;5028763;28;20123;-64
2022/09/15 01:21:31;;;;;;;9.05;3.47;;;16.80;99.90;;;;;;5029318;28;20065;-63
2022/09/15 01:24:21;;;;;;;10.20;3.47;;;16.80;99.90;;;;;;5028468;28;20104;-64
2022/09/15 01:27:26;;;;;;;8.00;3.33;;;16.80;99.90;;;;;;5029497;28;20036;-66
2022/09/15 01:29:58;;;;;;;7.00;3.60;;;16.80;99.90;;;;;;5030295;28;20032;-64
2022/09/15 01:33:03;;;;;;;8.18;3.53;;;16.80;99.90;;;;;;5030788;28;20065;-63
2022/09/15 01:36:00;;;;;;;6.25;3.50;;;16.80;99.90;;;;;;5026704;28;20415;-63
2022/09/15 01:38:59;;;;;;;9.32;3.55;;;16.80;99.90;;;;;;5016728;28;20026;-63
2022/09/15 01:41:45;;;;;;;6.30;3.30;;;16.80;99.90;;;;;;5028605;28;20037;-63
2022/09/15 01:44:33;;;;;;;7.78;3.60;;;16.80;99.90;;;;;;5028667;28;20025;-65
2022/09/15 01:47:05;;;;;;;12.25;3.38;;;16.80;99.90;;;;;;5022893;28;20037;-64
2022/09/15 01:49:38;;;;;;;5.50;3.00;;;16.70;99.90;;;;;;5028359;28;20072;-65
2022/09/15 01:52:05;;;;;;;7.45;3.30;;;16.80;99.90;;;;;;5030619;28;20091;-66
2022/09/15 01:54:44;;;;;;;9.20;3.50;;;16.80;99.90;;;;;;5028248;28;20029;-65
2022/09/15 01:57:10;;;;;;;6.93;3.05;;;16.80;99.90;;;;;;5030517;28;20018;-64
2022/09/15 01:59:36;;;;;;;11.15;3.78;;;16.90;99.90;;;;;;5029560;28;20041;-66
2022/09/15 02:02:08;;;;;;;5.90;3.47;;;16.90;99.90;;;;;;5028314;28;20493;-63
2022/09/15 02:04:44;;;;;;;6.63;3.70;;;16.90;99.90;;;;;;5029322;28;20033;-63
2022/09/15 02:07:43;;;;;;;7.65;3.20;;;16.90;99.90;;;;;;5028513;28;20494;-63
2022/09/15 02:10:18;;;;;;;6.85;3.05;;;16.90;99.90;;;;;;5026203;28;20128;-63
2022/09/15 02:13:04;;;;;;;7.40;3.22;;;16.90;99.90;;;;;;5028962;28;20076;-64
2022/09/15 02:15:36;;;;;;;13.57;3.33;;;16.90;99.90;;;;;;5027158;28;20032;-64
2022/09/15 02:18:05;;;;;;;6.88;3.25;;;16.90;99.90;;;;;;5024249;28;20028;-62
2022/09/15 02:20:37;;;;;;;6.63;2.75;;;16.90;99.90;;;;;;5029562;28;20021;-65
2022/09/15 02:23:20;;;;;;;9.45;3.30;;;16.90;99.90;;;;;;5027926;28;20041;-63
2022/09/15 02:25:55;;;;;;;6.15;3.40;;;17.00;99.90;;;;;;5028279;28;20083;-66
2022/09/15 02:28:26;;;;;;;6.93;2.92;;;17.00;99.90;;;;;;5028415;28;20032;-65
2022/09/15 02:30:54;;;;;;;6.88;3.13;;;17.00;99.90;;;;;;5025990;28;20105;-66
2022/09/15 02:33:24;;;;;;;4.47;3.00;;;16.90;99.90;;;;;;5029644;28;20047;-63
2022/09/15 02:35:51;;;;;;;8.05;2.97;;;16.90;99.90;;;;;;5028479;28;20037;-62
2022/09/15 02:38:16;;;;;;;6.10;2.88;;;16.90;99.90;;;;;;5026651;28;20136;-65
2022/09/15 02:40:43;;;;;;;6.30;2.88;;;16.90;99.90;;;;;;5025040;28;20525;-63
2022/09/15 02:43:15;;;;;;;7.60;2.78;;;16.80;99.90;;;;;;5028239;28;21871;-65
2022/09/15 02:45:42;;;;;;;9.30;2.90;;;16.80;99.90;;;;;;5028472;28;20076;-63
2022/09/15 02:48:11;;;;;;;7.32;2.88;;;16.90;99.90;;;;;;5027563;28;20429;-63
2022/09/15 02:50:38;;;;;;;6.20;2.97;;;16.90;99.90;;;;;;5027264;28;20033;-64
2022/09/15 02:53:04;;;;;;;6.70;2.33;;;16.90;99.90;;;;;;5025470;28;20041;-62
2022/09/15 02:55:29;;;;;;;5.65;2.40;;;17.00;99.90;;;;;;5027557;28;20083;-62
2022/09/15 02:57:57;;;;;;;9.50;2.40;;;17.00;99.90;;;;;;5025548;28;20080;-65
2022/09/15 03:00:23;;;;;;;6.70;2.47;;;17.00;99.90;;;;;;5027425;28;20056;-62
2022/09/15 03:02:52;;;;;;;4.70;2.40;;;17.10;99.90;;;;;;5027164;28;20538;-62
2022/09/15 03:05:20;;;;;;;16.73;3.33;;;17.10;99.90;;;;;;5028054;28;20033;-64
2022/09/15 03:07:46;;;;;;;4.75;2.33;;;17.10;99.90;;;;;;5029290;28;20037;-64
2022/09/15 03:10:12;;;;;;;3.70;2.25;;;17.10;99.90;;;;;;5028871;28;20032;-64
2022/09/15 03:12:40;;;;;;;5.85;2.00;;;17.10;99.90;;;;;;5025056;28;20060;-66
2022/09/15 03:15:08;;;;;;;5.35;2.42;;;17.00;99.90;;;;;;5027258;28;20048;-64
2022/09/15 03:17:38;;;;;;;7.68;2.95;;;17.00;99.90;;;;;;5026210;28;20029;-64
2022/09/15 03:20:06;;;;;;;8.10;2.58;;;17.00;99.90;;;;;;5028980;28;20103;-64
2022/09/15 03:22:32;;;;;;;6.55;2.35;;;16.90;99.90;;;;;;5028948;28;20116;-63
2022/09/15 03:24:58;;;;;;;5.25;2.45;;;16.90;99.90;;;;;;5028695;28;20113;-64
2022/09/15 03:27:23;;;;;;;8.93;2.78;;;16.90;99.90;;;;;;5027554;28;20026;-66
2022/09/15 03:29:49;;;;;;;6.07;2.47;;;16.80;99.90;;;;;;5029668;28;20030;-64
2022/09/15 03:32:15;;;;;;;6.68;2.58;;;16.80;99.90;;;;;;5027544;28;20116;-64
2022/09/15 03:34:40;;;;;;;4.43;2.20;;;16.80;99.90;;;;;;5029391;28;20033;-63
2022/09/15 03:37:06;;;;;;;6.95;2.40;;;16.80;99.90;;;;;;5026738;28;20029;-65
2022/09/15 03:39:33;;;;;;;8.85;2.63;;;16.80;99.90;;;;;;5028969;28;20399;-62
2022/09/15 03:41:58;;;;;;;4.25;2.30;;;16.80;99.90;;;;;;5028005;28;20037;-67
2022/09/15 03:44:24;;;;;;;4.75;2.20;;;16.80;99.90;;;;;;5028613;28;20132;-64
2022/09/15 03:46:50;;;;;;;6.00;2.50;;;16.90;99.90;;;;;;5027850;28;20033;-64
2022/09/15 03:49:16;;;;;;;5.93;2.88;;;16.80;99.90;;;;;;5025588;28;20083;-63
2022/09/15 03:51:42;;;;;;;11.80;2.45;;;16.80;99.90;;;;;;5025869;28;20079;-64
2022/09/15 03:54:07;;;;;;;5.20;2.70;;;16.90;99.90;;;;;;5027409;28;20030;-64
2022/09/15 03:56:33;;;;;;;6.57;2.67;;;16.90;99.90;;;;;;5028379;28;20025;-63
2022/09/15 03:59:01;;;;;;;10.45;2.15;;;16.90;99.90;;;;;;5026509;28;20033;-63
2022/09/15 04:01:28;;;;;;;4.78;2.95;;;16.80;99.90;;;;;;5022972;28;21446;-63
2022/09/15 04:03:53;;;;;;;6.45;2.67;;;16.90;99.90;;;;;;5025029;28;20034;-64
2022/09/15 04:06:21;;;;;;;10.05;2.42;;;16.90;99.90;;;;;;5028453;28;20041;-63
2022/09/15 04:08:47;;;;;;;6.57;2.65;;;16.80;99.90;;;;;;5028655;28;20025;-63
2022/09/15 04:11:14;;;;;;;9.57;4.15;;;16.90;99.90;;;;;;5026710;28;20064;-63
2022/09/15 04:13:41;;;;;;;8.13;2.75;;;16.80;99.90;;;;;;5028842;28;20076;-63
2022/09/15 04:16:10;;;;;;;7.03;2.50;;;16.80;99.90;;;;;;5027946;28;20470;-63
2022/09/15 04:18:36;;;;;;;5.05;2.38;;;16.80;99.90;;;;;;5027440;28;20045;-62
2022/09/15 04:21:07;;;;;;;7.57;2.45;;;16.80;99.90;;;;;;5038863;28;20546;-64
2022/09/15 04:23:33;;;;;;;5.70;2.10;;;16.80;99.90;;;;;;5029111;28;20059;-63
2022/09/15 04:26:02;;;;;;;5.82;2.28;;;16.80;99.90;;;;;;5028536;28;20053;-65
2022/09/15 04:28:31;;;;;;;6.82;2.53;;;16.90;99.90;;;;;;5028928;28;20026;-61
2022/09/15 04:31:05;;;;;;;5.78;2.40;;;16.90;99.90;;;;;;5027575;28;20382;-64
2022/09/15 04:33:31;;;;;;;3.22;1.90;;;16.90;99.90;;;;;;5028986;28;20084;-63
2022/09/15 04:36:18;;;;;;;6.55;2.55;;;16.80;99.90;;;;;;5044008;28;20033;-64
2022/09/15 04:38:44;;;;;;;6.80;2.15;;;16.90;99.90;;;;;;5028557;28;20482;-66
2022/09/15 04:41:10;;;;;;;4.70;1.98;;;16.90;99.90;;;;;;5026921;28;20061;-63
2022/09/15 04:43:37;;;;;;;4.45;1.70;;;16.90;99.90;;;;;;5029431;28;20033;-61
2022/09/15 04:46:02;;;;;;;5.47;2.20;;;16.90;99.90;;;;;;5027041;28;20080;-64
2022/09/15 04:48:30;;;;;;;5.68;2.28;;;16.90;99.90;;;;;;5028648;28;20425;-63
2022/09/15 04:51:01;;;;;;;6.30;2.20;;;16.90;99.90;;;;;;5027922;28;20092;-63
2022/09/15 04:53:26;;;;;;;;;;;16.90;99.90;;;;;;5026645;28;20121;-63
2022/09/15 04:55:52;;;;;;;3.45;1.98;;;16.90;99.90;;;;;;5027814;28;19996;-63
2022/09/15 04:58:18;;;;;;;4.55;2.00;;;16.90;99.90;;;;;;5024173;28;20026;-63
2022/09/15 05:00:44;;;;;;;3.38;2.00;;;16.90;99.90;;;;;;5018408;28;20033;-62
2022/09/15 05:03:11;;;;;;;3.50;1.90;;;16.90;99.90;;;;;;5027465;28;20045;-63
2022/09/15 05:05:37;;;;;;;5.25;2.40;;;16.90;99.90;;;;;;5031067;28;20021;-64
2022/09/15 05:08:02;;;;;;;6.20;1.98;;;16.90;99.90;;;;;;5020689;28;20032;-65
2022/09/15 05:10:28;;;;;;;9.30;2.20;;;16.90;99.90;;;;;;5029259;28;20064;-64
2022/09/15 05:12:54;;;;;;;3.65;1.80;;;16.90;99.90;;;;;;5031301;28;20056;-62
2022/09/15 05:15:20;;;;;;;3.72;2.10;;;16.90;99.90;;;;;;5029138;28;20062;-64
2022/09/15 05:17:46;;;;;;;4.35;1.92;;;16.90;99.90;;;;;;5030158;28;20034;-63
2022/09/15 05:20:11;;;;;;;4.43;2.05;;;16.90;99.90;;;;;;5029384;28;20049;-64
2022/09/15 05:22:37;;;;;;;5.22;1.60;;;16.90;99.90;;;;;;5030029;28;20034;-63
2022/09/15 05:25:04;;;;;;;4.80;1.90;;;16.90;99.90;;;;;;5027045;28;20037;-64
2022/09/15 05:27:31;;;;;;;4.88;1.75;;;16.90;99.90;;;;;;5028326;28;20033;-63
2022/09/15 05:29:57;;;;;;;8.43;1.70;;;16.90;99.90;;;;;;5028744;28;20037;-62
2022/09/15 05:32:23;;;;;;;5.00;1.75;;;16.90;99.90;;;;;;5027906;28;20624;-61
2022/09/15 05:34:49;;;;;;;4.63;2.10;;;16.90;99.90;;;;;;5029037;28;20033;-61
2022/09/15 05:37:15;;;;;;;6.32;1.75;;;16.90;99.90;;;;;;5029789;28;20105;-62
2022/09/15 05:39:40;;;;;;;8.07;2.15;;;16.80;99.90;;;;;;5031654;28;20112;-62
2022/09/15 05:42:07;;;;;;;4.20;1.60;;;16.90;99.90;;;;;;5030734;28;20052;-64
2022/09/15 05:44:33;;;;;;;2.63;1.67;;;16.90;99.90;;;;;;5031492;28;20029;-62
2022/09/15 05:46:58;;;;;;;5.65;1.67;;;16.90;99.90;;;;;;5030781;28;20033;-63
2022/09/15 05:49:24;;;;;;;5.05;1.85;;;16.90;99.90;;;;;;5029609;28;20653;-62
2022/09/15 05:51:50;;;;;;;4.30;1.50;;;17.00;99.90;;;;;;5031241;28;20087;-63
2022/09/15 05:54:15;;;;;;;7.15;1.70;;;16.80;99.90;;;;;;5030870;28;20061;-63
2022/09/15 05:56:41;;;;;;;3.20;1.60;;;16.80;99.90;;;;;;5030499;28;20473;-62
2022/09/15 05:59:07;;;;;;;7.50;1.27;;;16.80;99.90;;;;;;5030501;28;20401;-64
2022/09/15 06:01:32;;;;;;;8.57;1.80;;;16.80;99.90;;;;;;5030883;28;20029;-64
2022/09/15 06:03:58;;;;;;;6.65;1.40;;;16.80;99.90;;;;;;5031170;28;20045;-63
2022/09/15 06:06:25;;;;;;;7.85;1.35;;;16.80;99.90;;;;;;5028126;28;20184;-62
2022/09/15 06:08:54;;;;;;;3.25;1.60;;;16.80;99.90;;;;;;5030982;28;20048;-62
2022/09/15 06:11:23;;;;;;;3.40;1.60;;;16.80;99.90;;;;;;5028435;28;20087;-62
2022/09/15 06:13:49;;;;;;;3.03;1.70;;;16.80;99.90;;;;;;5029273;28;20025;-62
2022/09/15 06:16:19;;;;;;;6.50;1.50;;;16.80;99.90;;;;;;5029400;28;20029;-63
2022/09/15 06:18:45;;;;;;;4.30;1.73;;;16.80;99.90;;;;;;5030935;28;20030;-63
2022/09/15 06:21:14;;;;;;;3.47;1.38;;;16.80;99.90;;;;;;5029906;28;20275;-62
2022/09/15 06:23:40;;;;;;;5.10;2.28;;;16.80;99.90;;;;;;5029882;28;20025;-62
2022/09/15 06:26:14;;;;;;;3.83;1.33;;;16.80;99.90;;;;;;5030631;28;20045;-62
2022/09/15 06:28:45;;;;;;;7.70;1.80;;;16.90;99.90;;;;;;5030754;28;20038;-61
2022/09/15 06:31:13;;;;;;;7.00;1.60;;;16.80;99.90;;;;;;5029810;28;20050;-63
2022/09/15 06:33:44;;;;;;;4.80;1.75;;;16.80;99.90;;;;;;5029629;28;20120;-61
2022/09/15 06:36:14;;;;;;;7.07;1.70;;;16.80;99.90;;;;;;5028679;28;20033;-62
2022/09/15 06:38:41;;;;;;;5.75;1.85;;;16.80;99.90;;;;;;5030456;28;20033;-63
2022/09/15 06:41:07;;;;;;;4.82;1.77;;;16.70;99.90;;;;;;5030377;28;20056;-62
2022/09/15 06:43:34;;;;;;;3.38;1.60;;;16.70;99.90;;;;;;5029319;28;20040;-62
2022/09/15 06:46:06;;;;;;;8.93;2.03;;;16.60;99.90;;;;;;5030373;28;20030;-63
2022/09/15 06:48:32;;;;;;;6.30;2.05;;;16.70;99.90;;;;;;5029913;28;20033;-63
2022/09/15 06:50:59;;;;;;;4.75;1.70;;;16.70;99.90;;;;;;5028798;28;20034;-63
2022/09/15 06:53:27;;;;;;;5.63;1.80;;;16.70;99.90;;;;;;5027787;28;20033;-62
2022/09/15 06:55:52;;;;;;;3.90;1.80;;;16.60;99.90;;;;;;5029548;28;20057;-62
2022/09/15 06:58:18;;;;;;;3.88;1.48;;;16.60;99.90;;;;;;5029353;28;20061;-64
2022/09/15 07:00:45;;;;;;;3.70;1.88;;;16.60;99.90;;;;;;5029820;28;20033;-63
2022/09/15 07:03:10;;;;;;;2.80;1.63;;;16.60;99.90;;;;;;5028403;28;20127;-63
2022/09/15 07:05:36;;;;;;;5.07;1.75;;;16.60;99.90;;;;;;5030183;28;20466;-62
2022/09/15 07:08:02;;;;;;;4.68;1.80;;;16.60;99.90;;;;;;5030029;28;20025;-62
2022/09/15 07:10:28;;;;;;;3.85;1.50;;;16.70;99.90;;;;;;5029139;28;20060;-62
2022/09/15 07:12:54;;;;;;;3.38;1.70;;;16.70;99.90;;;;;;5029021;28;20077;-62
2022/09/15 07:15:22;;;;;;;2.60;1.65;;;16.70;99.90;;;;;;5028321;28;20034;-61
2022/09/15 07:17:47;;;;;;;1.95;1.58;;;16.80;99.90;;;;;;5029735;28;20113;-62
2022/09/15 07:20:13;;;;;;;6.45;1.90;;;16.80;99.90;;;;;;5028980;28;20676;-63
2022/09/15 07:22:39;;;;;;;3.13;1.90;;;16.90;99.90;;;;;;5028120;28;20104;-62
2022/09/15 07:25:05;;;;;;;2.80;1.70;;;17.10;99.90;;;;;;5028332;28;20043;-62
2022/09/15 07:27:31;;;;;;;2.33;1.50;;;17.10;99.90;;;;;;5028868;28;20186;-61
2022/09/15 07:29:57;;;;;;;3.45;1.60;;;17.10;99.90;;;;;;5029309;28;20030;-62
2022/09/15 07:32:23;;;;;;;3.60;1.55;;;17.00;99.90;;;;;;5027493;28;20053;-63
2022/09/15 07:34:50;;;;;;;9.90;1.65;;;16.90;99.90;;;;;;5029200;28;20040;-63
2022/09/15 07:37:16;;;;;;;2.53;1.15;;;16.80;99.90;;;;;;5028654;28;20030;-62
2022/09/15 07:39:42;;;;;;;3.38;1.60;;;16.70;99.90;;;;;;5029549;28;20029;-61
2022/09/15 07:42:07;;;;;;;6.30;1.92;;;16.60;99.90;;;;;;5029474;28;20076;-62
2022/09/15 07:44:33;;;;;;;3.72;1.83;;;16.60;99.90;;;;;;5028098;28;20029;-62
2022/09/15 07:46:59;;;;;;;3.75;1.42;;;16.50;99.90;;;;;;5029540;28;20116;-62
2022/09/15 07:49:24;;;;;;;5.38;1.90;;;16.50;99.90;;;;;;5028492;28;20026;-61
2022/09/15 07:51:50;;;;;;;3.65;1.80;;;16.50;99.90;;;;;;5029238;28;20060;-63
2022/09/15 07:54:16;;;;;;;5.78;1.80;;;16.40;99.90;;;;;;5027671;28;20029;-63
2022/09/15 07:56:41;;;;;;;6.25;1.85;;;16.40;99.90;;;;;;5029324;28;20036;-62
2022/09/15 07:59:07;;;;;;;3.22;2.10;;;16.40;99.90;;;;;;5029314;28;20520;-63
2022/09/15 08:01:33;;;;;;;3.40;1.85;;;16.40;99.90;;;;;;5028211;28;20026;-62
2022/09/15 08:03:59;;;;;;;5.05;2.05;;;16.40;99.90;;;;;;5028440;28;20528;-62
2022/09/15 08:06:25;;;;;;;5.15;1.98;;;16.40;99.90;;;;;;5028457;28;20037;-63
2022/09/15 08:08:51;;;;;;;4.57;2.30;;;16.40;99.90;;;;;;5029052;28;20386;-61
2022/09/15 08:11:18;;;;;;;4.03;2.08;;;16.40;99.90;;;;;;5028468;28;20029;-61
2022/09/15 08:13:48;;;;;;;5.63;1.85;;;16.40;99.90;;;;;;5028350;28;20064;-61
2022/09/15 08:16:17;;;;;;;6.68;2.13;;;16.40;99.90;;;;;;5028771;28;20030;-63
2022/09/15 08:18:43;;;;;;;3.60;2.08;;;16.30;99.90;;;;;;5029175;28;20044;-61
2022/09/15 08:21:15;;;;;;;4.53;2.00;;;16.30;99.90;;;;;;5029119;28;20026;-62
2022/09/15 08:23:42;;;;;;;6.13;2.33;;;16.30;99.90;;;;;;5028063;28;20041;-61
2022/09/15 08:26:09;;;;;;;6.60;2.70;;;16.30;99.90;;;;;;5028462;28;20109;-60
2022/09/15 08:28:36;;;;;;;4.25;2.40;;;16.20;99.90;;;;;;5027232;28;20544;-61
2022/09/15 08:31:04;;;;;;;4.25;1.88;;;16.30;99.90;;;;;;5028555;28;20087;-61
2022/09/15 08:33:31;;;;;;;5.18;2.47;;;16.30;99.90;;;;;;5029737;28;20080;-60
2022/09/15 08:36:03;;;;;;;8.13;2.40;;;16.40;99.90;;;;;;5032556;28;20455;-62
2022/09/15 08:38:29;;;;;;;3.58;2.28;;;16.40;99.90;;;;;;5031346;28;20034;-62
2022/09/15 08:41:04;;;;;;;6.65;2.58;;;16.40;99.90;;;;;;5031420;28;20025;-62
2022/09/15 08:43:43;;;;;;;5.78;2.70;;;16.40;99.90;;;;;;5031633;28;20080;-62
2022/09/15 08:46:15;;;;;;;6.95;3.10;;;16.40;99.90;;;;;;5032697;28;20029;-60
2022/09/15 08:48:48;;;;;;;6.75;2.65;;;16.40;99.90;;;;;;5030169;28;20108;-61
2022/09/15 08:51:25;;;;;;;7.63;3.22;;;16.50;99.90;;;;;;5031982;28;20108;-63
2022/09/15 08:53:59;;;;;;;5.85;2.72;;;16.50;99.90;;;;;;5032553;28;20821;-62
2022/09/15 08:56:27;;;;;;;5.00;2.80;;;16.50;99.90;;;;;;5031884;28;20120;-61
2022/09/15 08:58:53;;;;;;;8.00;3.10;;;16.50;99.90;;;;;;5031495;28;20154;-61
2022/09/15 09:01:41;;;;;;;6.90;2.75;;;16.60;99.90;;;;;;5031255;28;20116;-62
2022/09/15 09:04:37;;;;;;;5.80;2.33;;;16.60;99.90;;;;;;5032487;28;20030;-61
2022/09/15 09:07:17;;;;;;;3.78;2.55;;;16.60;99.90;;;;;;5032306;28;20517;-62
2022/09/15 09:10:02;;;;;;;6.40;3.17;;;16.60;99.90;;;;;;5031326;28;20025;-64
2022/09/15 09:12:49;;;;;;;3.97;2.45;;;16.70;99.90;;;;;;5031327;28;20049;-62
2022/09/15 09:15:35;;;;;;;7.55;2.60;;;16.70;99.90;;;;;;5031811;28;20517;-62
2022/09/15 09:18:33;;;;;;;4.05;2.40;;;16.70;99.90;;;;;;5032179;28;20455;-62
2022/09/15 09:21:10;;;;;;;6.10;2.20;;;16.70;99.90;;;;;;5032165;28;20041;-63
2022/09/15 09:24:13;;;;;;;5.07;2.00;;;16.70;99.90;;;;;;5031150;28;20021;-62
2022/09/15 09:26:39;;;;;;;4.35;2.20;;;16.70;99.90;;;;;;5029025;28;20056;-62
2022/09/15 09:29:14;;;;;;;4.97;2.10;;;16.70;99.90;;;;;;5030866;28;20486;-62
2022/09/15 09:31:40;;;;;;;3.97;2.20;;;16.70;99.90;;;;;;5030559;28;20057;-62
2022/09/15 09:34:21;;;;;;;3.92;1.92;;;16.70;99.90;;;;;;5031806;28;20526;-61
2022/09/15 09:36:54;;;;;;;2.75;1.50;;;16.70;99.90;;;;;;5031632;28;20033;-62
2022/09/15 09:39:19;;;;;;;3.20;1.77;;;16.70;99.90;;;;;;5028859;28;20040;-64
2022/09/15 09:41:46;;;;;;;8.40;1.73;;;16.70;99.90;;;;;;5029282;28;20029;-62
2022/09/15 09:44:13;;;;;;;6.03;1.95;;;16.70;99.90;;;;;;5030192;28;20095;-62
2022/09/15 09:46:40;;;;;;;2.83;1.65;;;16.60;99.90;;;;;;5030362;28;20052;-62
2022/09/15 09:49:21;;;;;;;2.83;1.75;;;16.70;99.90;;;;;;5031271;28;20026;-62
2022/09/15 09:51:52;;;;;;;5.75;2.28;;;16.70;99.90;;;;;;5031365;28;20389;-61
2022/09/15 09:54:20;;;;;;;8.82;2.13;;;16.90;99.90;;;;;;5030233;28;20036;-62
2022/09/15 09:56:52;;;;;;;5.18;2.15;;;17.00;99.90;;;;;;5030280;28;20044;-61
2022/09/15 09:59:44;;;;;;;4.60;2.45;;;17.00;99.90;;;;;;5031064;28;20026;-63
2022/09/15 10:02:09;;;;;;;3.80;2.40;;;17.00;99.90;;;;;;5031269;28;20037;-62
2022/09/15 10:04:36;;;;;;;3.33;2.60;;;17.00;99.90;;;;;;5029465;28;20171;-61
2022/09/15 10:07:01;;;;;;;4.57;2.92;;;17.10;99.90;;;;;;5031203;28;20064;-62
2022/09/15 10:09:27;;;;;;;5.78;2.53;;;17.10;99.90;;;;;;5030285;28;20482;-60
2022/09/15 10:11:57;;;;;;;6.38;2.50;;;17.10;99.90;;;;;;5030735;28;20036;-61
2022/09/15 10:14:36;;;;;;;4.18;2.20;;;17.00;99.90;;;;;;5029024;28;20076;-61
2022/09/15 10:17:09;;;;;;;3.40;1.70;;;17.00;99.90;;;;;;5031027;28;20108;-61
2022/09/15 10:19:55;;;;;;;3.53;2.20;;;17.00;99.90;;;;;;5028576;28;20390;-62
2022/09/15 10:22:37;;;;;;;5.30;2.25;;;17.00;99.90;;;;;;5030330;28;20038;-63
2022/09/15 10:25:22;;;;;;;6.47;2.30;;;17.00;99.90;;;;;;5030368;28;20515;-62
2022/09/15 10:28:16;;;;;;;6.88;2.33;;;17.00;99.90;;;;;;5030320;28;20032;-62
2022/09/15 10:30:57;;;;;;;3.45;1.95;;;17.10;99.90;;;;;;5023468;28;20273;-62
2022/09/15 10:33:25;;;;;;;4.13;2.40;;;17.20;99.90;;;;;;5029135;28;20762;-63
2022/09/15 10:35:53;;;;;;;3.60;2.03;;;17.30;99.90;;;;;;5029296;28;20459;-62
2022/09/15 10:38:44;;;;;;;4.63;1.98;;;17.30;99.90;;;;;;5028806;28;20057;-62
2022/09/15 10:41:29;;;;;;;4.05;2.00;;;17.30;99.90;;;;;;5030499;28;20489;-61
2022/09/15 10:44:32;;;;;;;4.43;2.20;;;17.30;99.90;;;;;;5030464;28;20113;-61
2022/09/15 10:47:16;;;;;;;8.13;2.70;;;17.30;99.90;;;;;;5029465;28;20057;-63
2022/09/15 10:49:56;;;;;;;3.03;2.00;;;17.30;99.90;;;;;;5029560;28;20029;-62
2022/09/15 10:52:40;;;;;;;;;;;17.20;99.90;;;;;;5030228;28;20128;-62
2022/09/15 10:55:22;;;;;;;3.67;1.90;;;17.20;99.90;;;;;;5030217;28;20293;-62
2022/09/15 10:58:15;;;;;;;3.20;2.00;;;17.10;99.90;;;;;;5029006;28;20021;-61
2022/09/15 11:00:46;;;;;;;9.25;2.30;;;17.10;99.90;;;;;;5029231;28;20159;-60
2022/09/15 11:03:26;;;;;;;5.13;2.50;;;17.00;99.90;;;;;;5029909;28;20375;-62
2022/09/15 11:06:01;;;;;;;4.53;2.38;;;16.90;99.90;;;;;;5029166;28;20034;-61
2022/09/15 11:08:51;;;;;;;6.38;2.58;;;16.90;99.90;;;;;;5029264;28;20029;-61
2022/09/15 11:11:52;;;;;;;5.70;2.45;;;17.00;99.90;;;;;;5029787;28;20433;-62
2022/09/15 11:14:18;;;;;;;;;;;17.00;99.90;;;;;;5009718;28;20033;-62
2022/09/15 11:17:11;;;;;;;4.28;2.35;;;17.00;99.90;;;;;;5029093;28;19911;-61
2022/09/15 11:19:51;;;;;;;4.75;1.70;;;17.00;99.90;;;;;;5027891;28;20437;-63
2022/09/15 11:22:21;;;;;;;4.65;1.63;;;17.00;99.90;;;;;;5029643;28;20026;-62
2022/09/15 11:24:56;;;;;;;2.88;1.38;;;17.00;99.90;;;;;;5027821;28;20511;-63
2022/09/15 11:27:26;;;;;;;1.63;0.90;;;16.90;99.90;;;;;;5029550;28;20021;-62
2022/09/15 11:30:06;;;;;;;3.55;1.15;;;16.80;99.90;;;;;;5028820;28;20481;-63
2022/09/15 11:32:47;;;;;;;7.97;1.23;;;16.60;99.90;;;;;;5028471;28;20057;-62
2022/09/15 11:35:12;;;;;;;;;;;16.30;99.90;;;;;;5030013;28;20033;-62
2022/09/15 11:37:44;;;;;;;2.75;1.38;;;16.10;99.90;;;;;;5028823;28;20276;-63
2022/09/15 11:40:24;;;;;;;4.00;1.85;;;16.00;99.90;;;;;;5028949;28;20030;-62
2022/09/15 11:43:23;;;;;;;4.97;2.05;;;16.00;99.90;;;;;;5029298;28;20033;-63
2022/09/15 11:45:53;;;;;;;3.95;2.30;;;16.00;99.90;;;;;;5000350;28;20041;-62
2022/09/15 11:48:38;;;;;;;8.70;2.70;;;16.00;99.90;;;;;;5029500;28;20029;-61
2022/09/15 11:51:06;;;;;;;5.20;2.88;;;15.90;99.90;;;;;;5028643;28;20371;-61
2022/09/15 11:53:41;;;;;;;5.28;2.63;;;15.80;99.90;;;;;;5028533;28;20041;-62
2022/09/15 11:56:32;;;;;;;8.40;2.50;;;15.80;99.90;;;;;;5029512;28;20036;-63
2022/09/15 11:59:16;;;;;;;;;;;15.80;99.90;;;;;;5029020;28;20083;-62
2022/09/15 12:02:03;;;;;;;4.90;2.60;;;15.80;99.90;;;;;;5028292;28;20012;-63
2022/09/15 12:04:34;;;;;;;5.20;2.42;;;15.60;99.90;;;;;;5028593;28;20056;-65
2022/09/15 12:07:14;;;;;;;5.45;3.00;;;15.60;99.90;;;;;;5029197;28;20072;-62
2022/09/15 12:09:40;;;;;;;4.82;2.80;;;15.70;99.90;;;;;;5030286;28;20057;-63
2022/09/15 12:12:12;;;;;;;7.47;3.03;;;15.80;99.90;;;;;;5032636;28;20081;-62
2022/09/15 12:14:42;;;;;;;4.75;2.53;;;16.00;99.90;;;;;;5032446;28;20029;-63
2022/09/15 12:17:23;;;;;;;4.65;2.40;;;16.20;99.90;;;;;;5033309;28;20565;-62
2022/09/15 12:19:59;;;;;;;5.88;2.30;;;16.20;99.90;;;;;;5031646;28;20065;-62
2022/09/15 12:22:48;;;;;;;4.05;2.50;;;16.20;99.90;;;;;;5032363;28;20037;-62
2022/09/15 12:25:16;;;;;;;6.03;2.30;;;16.10;99.90;;;;;;5032841;28;20767;-63
2022/09/15 12:27:42;;;;;;;7.68;2.15;;;15.90;99.90;;;;;;5031940;28;20040;-63
2022/09/15 12:30:38;;;;;;;4.07;2.10;;;15.80;99.90;;;;;;5031722;28;20128;-63
2022/09/15 12:33:41;;;;;;;5.00;2.00;;;15.80;99.90;;;;;;5032425;28;20053;-62
2022/09/15 12:36:33;;;;;;;4.68;2.00;;;15.70;99.90;;;;;;5032453;28;20466;-62
2022/09/15 12:39:01;;;;;;;4.88;2.25;;;15.70;99.90;;;;;;5032053;28;20037;-63
2022/09/15 12:41:27;;;;;;;6.22;2.20;;;15.70;99.90;;;;;;5032591;28;20029;-64
2022/09/15 12:44:22;;;;;;;5.47;2.30;;;15.70;99.90;;;;;;5032459;28;20040;-63
2022/09/15 12:46:54;;;;;;;4.68;2.50;;;15.80;99.90;;;;;;5031898;28;20109;-63
2022/09/15 12:49:26;;;;;;;4.28;2.28;;;15.70;99.90;;;;;;5031472;28;20091;-62
2022/09/15 12:51:52;;;;;;;6.90;2.78;;;15.80;99.90;;;;;;5032378;28;20547;-62
2022/09/15 12:54:25;;;;;;;4.78;2.42;;;15.80;99.90;;;;;;5032583;28;20026;-62
2022/09/15 12:56:53;;;;;;;3.95;2.13;;;15.90;99.90;;;;;;5031804;28;20438;-66
2022/09/15 12:59:24;;;;;;;5.95;2.13;;;15.90;99.90;;;;;;5031380;28;20497;-62
2022/09/15 13:01:51;;;;;;;5.97;2.30;;;15.70;99.90;;;;;;5031764;28;20025;-62
2022/09/15 13:04:35;;;;;;;6.70;2.67;;;15.80;99.90;;;;;;5032322;28;20056;-62
2022/09/15 13:07:18;;;;;;;5.47;2.67;;;15.90;99.90;;;;;;5032149;28;20109;-63
2022/09/15 13:09:59;;;;;;;3.35;2.20;;;16.00;99.90;;;;;;5030446;28;20121;-63
2022/09/15 13:12:32;;;;;;;5.35;2.60;;;15.90;99.90;;;;;;5031907;28;20038;-62